^^
Grace C. Lehan Memorial Weather Station Historical Data
Daily Summary for September 11, 2021 Units:  English    Metric   Both
Daily Weekly Monthly Yearly
  High: Low: Average:
Temperature: 34 °F 22.2 °F 28.8 °F
Dew Point: 25.9 °F 18.4 °F 22.7 °F
Humidity: 92.7% 66.6% 78%
Wind Speed: 0.4mph 0mph 0mph
Wind Gust: 3mph - -
Wind- - WNW
Pressure: 30.31 in 30.11 in -
Precipitation: 0.00 in    
 
 
Tabular Data for September 11, 2021
Time Temperature Dew Point Pressure Wind Wind Speed Wind Gust Humidity Rainfall Rate (Hourly) solar
00:04 26.2 °F 20.3 °F 30.27 in Calm   2 mph 78% 0.00 in 0 W/m2
00:09 26 °F 20.1 °F 30.26 in Calm     78% 0.00 in 0 W/m2
00:14 25.9 °F 20.1 °F 30.26 in Calm     78.6% 0.00 in 0 W/m2
00:19 25.8 °F 20.2 °F 30.26 in Calm     79% 0.00 in 0 W/m2
00:24 25.7 °F 20.1 °F 30.26 in Calm     79% 0.00 in 0 W/m2
00:29 25.6 °F 20 °F 30.26 in Calm     79% 0.00 in 0 W/m2
00:34 25.5 °F 19.9 °F 30.27 in Calm     79% 0.00 in 0 W/m2
00:39 25.4 °F 19.8 °F 30.27 in Calm     79% 0.00 in 0 W/m2
00:44 25.3 °F 19.7 °F 30.27 in Calm     79% 0.00 in 0 W/m2
00:49 25.3 °F 19.7 °F 30.27 in Calm     79% 0.00 in 0 W/m2
00:54 25.3 °F 19.7 °F 30.28 in Calm     79% 0.00 in 0 W/m2
00:59 25.2 °F 19.6 °F 30.27 in Calm     79% 0.00 in 0 W/m2
01:04 25.2 °F 19.6 °F 30.28 in Calm     79% 0.00 in 0 W/m2
01:09 25.3 °F 19.7 °F 30.28 in Calm     79% 0.00 in 0 W/m2
01:14 25.3 °F 19.7 °F 30.28 in Calm     79% 0.00 in 0 W/m2
01:19 25.2 °F 19.6 °F 30.28 in Calm     79% 0.00 in 0 W/m2
01:24 25.3 °F 19.8 °F 30.28 in Calm     79% 0.00 in 0 W/m2
01:29 25.5 °F 19.7 °F 30.28 in Calm     78.5% 0.00 in 0 W/m2
01:34 25.5 °F 19.9 °F 30.28 in Calm     79% 0.00 in 0 W/m2
01:39 25.5 °F 20 °F 30.28 in Calm     79% 0.00 in 0 W/m2
01:44 25.6 °F 19.7 °F 30.28 in Calm     78.1% 0.00 in 0 W/m2
01:49 25.7 °F 19.8 °F 30.28 in Calm     78% 0.00 in 0 W/m2
01:54 25.8 °F 19.9 °F 30.28 in Calm     78% 0.00 in 0 W/m2
01:59 25.7 °F 19.8 °F 30.28 in Calm     78% 0.00 in 0 W/m2
02:04 25.6 °F 19.7 °F 30.28 in Calm     78% 0.00 in 0 W/m2
02:09 25.5 °F 19.6 °F 30.28 in Calm     78% 0.00 in 0 W/m2
02:14 25.4 °F 19.5 °F 30.28 in Calm     78% 0.00 in 0 W/m2
02:19 25.3 °F 19.6 °F 30.29 in Calm     78.5% 0.00 in 0 W/m2
02:24 25.2 °F 19.6 °F 30.30 in Calm     78.8% 0.00 in 0 W/m2
02:29 24.9 °F 19.4 °F 30.30 in Calm     79.2% 0.00 in 0 W/m2
02:34 24.7 °F 19.4 °F 30.29 in Calm     80% 0.00 in 0 W/m2
02:39 24.5 °F 19.2 °F 30.28 in Calm     80% 0.00 in 0 W/m2
02:44 24.4 °F 19.3 °F 30.28 in Calm     80.7% 0.00 in 0 W/m2
02:49 24.3 °F 19.3 °F 30.28 in Calm     81% 0.00 in 0 W/m2
02:54 24.2 °F 19.2 °F 30.28 in Calm     81% 0.00 in 0 W/m2
02:59 24.1 °F 19.2 °F 30.28 in Calm     81% 0.00 in 0 W/m2
03:04 24 °F 19 °F 30.28 in Calm     81% 0.00 in 0 W/m2
03:09 23.9 °F 18.9 °F 30.28 in Calm     81% 0.00 in 0 W/m2
03:14 23.9 °F 19.1 °F 30.28 in Calm     81.6% 0.00 in 0 W/m2
03:19 23.8 °F 19.1 °F 30.28 in Calm     82% 0.00 in 0 W/m2
03:24 23.7 °F 19 °F 30.28 in Calm     82% 0.00 in 0 W/m2
03:29 23.7 °F 19 °F 30.28 in Calm     82% 0.00 in 0 W/m2
03:34 23.6 °F 18.9 °F 30.28 in Calm     82% 0.00 in 0 W/m2
03:39 23.6 °F 19 °F 30.28 in Calm     82.4% 0.00 in 0 W/m2
03:44 23.6 °F 19.2 °F 30.28 in Calm     83% 0.00 in 0 W/m2
03:49 23.5 °F 19.1 °F 30.28 in Calm     83% 0.00 in 0 W/m2
03:54 23.5 °F 19.1 °F 30.28 in Calm     83% 0.00 in 0 W/m2
03:59 23.4 °F 19 °F 30.28 in Calm     83% 0.00 in 0 W/m2
04:04 23.3 °F 18.9 °F 30.27 in Calm     83% 0.00 in 0 W/m2
04:09 23.2 °F 18.8 °F 30.28 in Calm     83% 0.00 in 0 W/m2
04:14 23.1 °F 18.7 °F 30.28 in Calm     83% 0.00 in 0 W/m2
04:19 23.1 °F 18.7 °F 30.27 in Calm     83% 0.00 in 0 W/m2
04:24 23 °F 18.6 °F 30.27 in Calm     83% 0.00 in 0 W/m2
04:29 22.9 °F 18.6 °F 30.27 in Calm     83% 0.00 in 0 W/m2
04:34 22.9 °F 18.6 °F 30.27 in Calm     83.4% 0.00 in 0 W/m2
04:39 22.8 °F 18.6 °F 30.27 in Calm     83.8% 0.00 in 0 W/m2
04:44 22.7 °F 18.6 °F 30.27 in Calm     84% 0.00 in 0 W/m2
04:49 22.6 °F 18.5 °F 30.27 in Calm     84% 0.00 in 0 W/m2
04:54 22.5 °F 18.4 °F 30.27 in Calm     84% 0.00 in 0 W/m2
04:59 22.5 °F 18.4 °F 30.28 in Calm     84% 0.00 in 0 W/m2
05:04 22.4 °F 18.6 °F 30.28 in Calm     85% 0.00 in 0 W/m2
05:09 22.4 °F 18.6 °F 30.27 in Calm     85% 0.00 in 0 W/m2
05:14 22.5 °F 18.8 °F 30.27 in Calm     85.4% 0.00 in 0 W/m2
05:19 22.6 °F 19 °F 30.28 in Calm     86% 0.00 in 0 W/m2
05:24 22.6 °F 18.9 °F 30.28 in Calm     85.6% 0.00 in 0 W/m2
05:29 22.5 °F 18.8 °F 30.28 in Calm     85.5% 0.00 in 0 W/m2
05:34 22.5 °F 19 °F 30.29 in Calm     86% 0.00 in 0 W/m2
05:39 22.5 °F 18.8 °F 30.29 in Calm     85.5% 0.00 in 0 W/m2
05:44 22.4 °F 18.7 °F 30.30 in Calm     85.3% 0.00 in 0 W/m2
05:49 22.3 °F 18.8 °F 30.30 in Calm     86% 0.00 in 0 W/m2
05:54 22.3 °F 18.7 °F 30.30 in Calm     85.8% 0.00 in 0 W/m2
05:59 22.3 °F 18.7 °F 30.31 in Calm     86% 0.00 in 0 W/m2
06:04 22.2 °F 18.7 °F 30.31 in Calm     86% 0.00 in 0 W/m2
06:09 22.3 °F 18.8 °F 30.30 in Calm     86.3% 0.00 in 0 W/m2
06:14 22.3 °F 18.9 °F 30.30 in Calm     86.6% 0.00 in 0 W/m2
06:19 22.3 °F 19.1 °F 30.30 in Calm     87% 0.00 in 0 W/m2
06:24 22.4 °F 19.1 °F 30.30 in Calm     87% 0.00 in 0 W/m2
06:29 22.5 °F 19.2 °F 30.30 in Calm     87% 0.00 in 0 W/m2
06:34 22.6 °F 19.3 °F 30.30 in Calm     87% 0.00 in 0 W/m2
06:39 22.7 °F 19.4 °F 30.30 in Calm     87% 0.00 in 0 W/m2
06:44 22.7 °F 19.5 °F 30.30 in Calm     87% 0.00 in 0 W/m2
06:49 22.8 °F 19.5 °F 30.30 in Calm     87% 0.00 in 0 W/m2
06:54 22.9 °F 19.6 °F 30.30 in Calm     87% 0.00 in 0 W/m2
06:59 22.9 °F 19.6 °F 30.30 in Calm     87% 0.00 in 0 W/m2
07:04 23 °F 20 °F 30.29 in Calm     88.1% 0.00 in 0 W/m2
07:09 23 °F 21.2 °F 30.29 in Calm     92.7% 0.00 in 0 W/m2
07:14 23.1 °F 19.8 °F 30.29 in Calm     87% 0.00 in 0 W/m2
07:19 23.1 °F 19.8 °F 30.29 in Calm     87% 0.00 in 0 W/m2
07:24 23.1 °F 19.8 °F 30.29 in Calm     87% 0.00 in 5 W/m2
07:29 23.1 °F 19.9 °F 30.29 in Calm     87.3% 0.00 in 5 W/m2
07:34 23.2 °F 20.2 °F 30.28 in Calm     88% 0.00 in 7 W/m2
07:39 23.2 °F 20.2 °F 30.29 in Calm     88% 0.00 in 12 W/m2
07:44 23.3 °F 20.3 °F 30.29 in Calm     88% 0.00 in 14 W/m2
07:49 23.3 °F 20.2 °F 30.29 in Calm     87.5% 0.00 in 16 W/m2
07:54 23.4 °F 20.3 °F 30.29 in Calm     87.6% 0.00 in 18 W/m2
07:59 23.5 °F 20.5 °F 30.29 in Calm     88% 0.00 in 21 W/m2
08:09 24 °F 20.9 °F 30.29 in Calm     88% 0.00 in 32 W/m2
08:14 24.2 °F 21.1 °F 30.29 in Calm     88% 0.00 in 30 W/m2
08:19 24.3 °F 21.3 °F 30.29 in Calm     88% 0.00 in 35 W/m2
08:24 24.5 °F 21.5 °F 30.29 in Calm     88% 0.00 in 33 W/m2
08:29 24.7 °F 21.7 °F 30.29 in Calm     88% 0.00 in 39 W/m2
08:34 24.9 °F 21.8 °F 30.29 in Calm     87.7% 0.00 in 39 W/m2
08:39 25.1 °F 21.8 °F 30.29 in Calm     87% 0.00 in 39 W/m2
08:44 25.3 °F 21.9 °F 30.30 in Calm     87% 0.00 in 42 W/m2
08:49 25.4 °F 22.1 °F 30.30 in Calm     87% 0.00 in 44 W/m2
08:54 25.6 °F 22.3 °F 30.30 in Calm     87% 0.00 in 44 W/m2
08:59 25.8 °F 22.4 °F 30.30 in Calm     86.7% 0.00 in 51 W/m2
09:04 26 °F 22.4 °F 30.30 in Calm     86% 0.00 in 63 W/m2
09:09 26.1 °F 22.5 °F 30.30 in Calm     86% 0.00 in 77 W/m2
09:14 26.3 °F 22.7 °F 30.30 in Calm     86% 0.00 in 83 W/m2
09:19 26.5 °F 22.7 °F 30.30 in Calm     85.4% 0.00 in 95 W/m2
09:24 26.7 °F 23.1 °F 30.30 in Calm     86.2% 0.00 in 95 W/m2
09:29 26.9 °F 23 °F 30.29 in Calm     85% 0.00 in 105 W/m2
09:34 27.2 °F 23.2 °F 30.29 in Calm     84.9% 0.00 in 105 W/m2
09:39 27.4 °F 23.3 °F 30.29 in Calm     84.2% 0.00 in 113 W/m2
09:44 27.7 °F 23.5 °F 30.29 in Calm     84% 0.00 in 113 W/m2
09:49 27.9 °F 23.6 °F 30.29 in Calm     83.8% 0.00 in 105 W/m2
09:54 28.1 °F 23.7 °F 30.29 in WNW 0.1 mph 1 mph 83.1% 0.00 in 104 W/m2
09:59 28.3 °F 23.8 °F 30.29 in Calm   1 mph 83% 0.00 in 104 W/m2
10:04 28.5 °F 23.9 °F 30.29 in Calm   1 mph 82.7% 0.00 in 104 W/m2
10:09 28.6 °F 23.8 °F 30.29 in Calm     82% 0.00 in 102 W/m2
10:14 28.7 °F 23.9 °F 30.29 in Calm     82% 0.00 in 93 W/m2
10:19 28.7 °F 23.6 °F 30.29 in Calm     81.1% 0.00 in 98 W/m2
10:24 28.7 °F 23.6 °F 30.29 in Calm     81% 0.00 in 109 W/m2
10:29 28.8 °F 23.7 °F 30.30 in Calm     81% 0.00 in 116 W/m2
10:34 28.8 °F 23.7 °F 30.30 in Calm     80.8% 0.00 in 114 W/m2
10:39 28.8 °F 23.4 °F 30.30 in Calm     80% 0.00 in 114 W/m2
10:44 28.9 °F 23.4 °F 30.28 in Calm     79.8% 0.00 in 118 W/m2
10:49 28.9 °F 23.2 °F 30.28 in Calm     79% 0.00 in 120 W/m2
10:54 29 °F 23.3 °F 30.27 in Calm     78.8% 0.00 in 116 W/m2
10:59 29.2 °F 23.5 °F 30.28 in Calm     79% 0.00 in 148 W/m2
11:04 29.3 °F 23.6 °F 30.27 in Calm     79% 0.00 in 179 W/m2
11:09 29.6 °F 23.9 °F 30.26 in Calm     79% 0.00 in 183 W/m2
11:14 30 °F 24.1 °F 30.26 in Calm     78.3% 0.00 in 181 W/m2
11:19 30.2 °F 23.9 °F 30.27 in WNW 0.2 mph 3 mph 77% 0.00 in 192 W/m2
11:24 30.4 °F 23.8 °F 30.26 in WNW 0.4 mph 3 mph 76.2% 0.00 in 200 W/m2
11:29 30.6 °F 24 °F 30.25 in Calm   3 mph 76.1% 0.00 in 199 W/m2
11:34 30.9 °F 24.6 °F 30.24 in Calm   3 mph 76.9% 0.00 in 195 W/m2
11:39 31.2 °F 24.1 °F 30.24 in WNW 0.1 mph 2 mph 74.7% 0.00 in 181 W/m2
11:44 31.3 °F 24 °F 30.24 in Calm   2 mph 74% 0.00 in 186 W/m2
11:49 31.5 °F 24.1 °F 30.23 in Calm   2 mph 74% 0.00 in 186 W/m2
11:54 31.7 °F 24.2 °F 30.23 in Calm   2 mph 73.6% 0.00 in 149 W/m2
11:59 31.8 °F 23.9 °F 30.23 in Calm   2 mph 72.4% 0.00 in 132 W/m2
12:00 31.8 °F 23.8 °F 30.22 in Calm   2 mph 72% 0.00 in 118 W/m2
12:09 31.8 °F 24 °F 30.22 in Calm     72.6% 0.00 in 116 W/m2
12:14 31.8 °F 23.8 °F 30.22 in Calm     72% 0.00 in 123 W/m2
12:19 31.9 °F 23.9 °F 30.22 in Calm     72% 0.00 in 128 W/m2
12:24 32 °F 24 °F 30.22 in Calm     72% 0.00 in 130 W/m2
12:29 32.1 °F 24.1 °F 30.22 in Calm     72% 0.00 in 134 W/m2
12:34 32.2 °F 24.2 °F 30.21 in Calm     71.7% 0.00 in 130 W/m2
12:39 32.3 °F 23.7 °F 30.21 in Calm     70.2% 0.00 in 125 W/m2
12:44 32.4 °F 23.7 °F 30.21 in Calm     70% 0.00 in 120 W/m2
12:49 32.4 °F 23.8 °F 30.21 in Calm     70% 0.00 in 118 W/m2
12:54 32.5 °F 23.8 °F 30.21 in Calm     70% 0.00 in 123 W/m2
12:59 32.6 °F 23.9 °F 30.21 in Calm     70% 0.00 in 121 W/m2
13:04 32.6 °F 23.9 °F 30.21 in Calm     70% 0.00 in 120 W/m2
13:09 32.6 °F 23.7 °F 30.20 in Calm     69.4% 0.00 in 113 W/m2
13:14 32.6 °F 23.7 °F 30.20 in Calm     69.5% 0.00 in 113 W/m2
13:19 32.5 °F 23.5 °F 30.21 in Calm     69% 0.00 in 113 W/m2
13:24 32.5 °F 23.6 °F 30.20 in Calm     69.2% 0.00 in 120 W/m2
13:29 32.6 °F 24.1 °F 30.20 in Calm     70.5% 0.00 in 118 W/m2
13:34 32.9 °F 24.3 °F 30.20 in Calm     70.4% 0.00 in 107 W/m2
13:39 33.1 °F 24.3 °F 30.20 in Calm     69.7% 0.00 in 98 W/m2
13:44 33.2 °F 24 °F 30.20 in Calm     68.6% 0.00 in 98 W/m2
13:49 33.3 °F 24.1 °F 30.20 in Calm     68.7% 0.00 in 97 W/m2
13:54 33.3 °F 23.9 °F 30.20 in Calm     68% 0.00 in 86 W/m2
13:59 33.4 °F 24 °F 30.20 in Calm     68% 0.00 in 86 W/m2
14:04 33.4 °F 23.9 °F 30.20 in Calm     68% 0.00 in 88 W/m2
14:09 33.3 °F 23.9 °F 30.21 in Calm     68% 0.00 in 88 W/m2
14:14 33.2 °F 23.9 °F 30.21 in Calm     68.1% 0.00 in 79 W/m2
14:19 33.3 °F 24.2 °F 30.20 in Calm     68.9% 0.00 in 90 W/m2
14:24 33.3 °F 23.9 °F 30.20 in Calm   1 mph 68% 0.00 in 91 W/m2
14:29 33.4 °F 24 °F 30.19 in Calm   1 mph 68% 0.00 in 90 W/m2
14:34 33.4 °F 24 °F 30.19 in Calm   1 mph 68% 0.00 in 90 W/m2
14:39 33.4 °F 24 °F 30.19 in Calm     68% 0.00 in 74 W/m2
14:44 33.5 °F 24.1 °F 30.20 in Calm     68.1% 0.00 in 63 W/m2
14:49 33.5 °F 24.5 °F 30.20 in Calm     69% 0.00 in 63 W/m2
14:54 33.6 °F 24.3 °F 30.20 in Calm     68.3% 0.00 in 60 W/m2
14:59 33.7 °F 24.3 °F 30.20 in Calm     68% 0.00 in 58 W/m2
15:04 33.7 °F 24.3 °F 30.19 in Calm     68% 0.00 in 62 W/m2
15:09 33.7 °F 24.3 °F 30.20 in Calm     68% 0.00 in 62 W/m2
15:14 33.8 °F 24.4 °F 30.20 in Calm     68% 0.00 in 60 W/m2
15:19 33.8 °F 24.6 °F 30.20 in Calm     68.7% 0.00 in 62 W/m2
15:24 33.8 °F 24.2 °F 30.19 in Calm     67.4% 0.00 in 62 W/m2
15:29 33.9 °F 24.5 °F 30.19 in Calm     68% 0.00 in 60 W/m2
15:34 33.9 °F 24.2 °F 30.19 in Calm     67.3% 0.00 in 54 W/m2
15:39 33.9 °F 24.1 °F 30.18 in Calm     67% 0.00 in 49 W/m2
15:44 33.9 °F 24.1 °F 30.18 in Calm     67% 0.00 in 44 W/m2
15:49 33.9 °F 24.1 °F 30.18 in Calm     67% 0.00 in 37 W/m2
15:54 33.9 °F 24.1 °F 30.18 in Calm     67% 0.00 in 30 W/m2
15:59 34 °F 24.1 °F 30.18 in Calm     66.8% 0.00 in 25 W/m2
16:00 34 °F 24.2 °F 30.18 in Calm     67% 0.00 in 23 W/m2
16:09 34 °F 24.1 °F 30.18 in Calm     66.6% 0.00 in 16 W/m2
16:14 34 °F 24.2 °F 30.18 in Calm     66.9% 0.00 in 14 W/m2
16:19 34 °F 24.7 °F 30.17 in Calm     68.5% 0.00 in 12 W/m2
16:24 33.9 °F 24.8 °F 30.17 in Calm     69% 0.00 in 9 W/m2
16:29 33.8 °F 24.8 °F 30.18 in Calm     69.3% 0.00 in 7 W/m2
16:34 33.7 °F 24.9 °F 30.17 in Calm     70% 0.00 in 5 W/m2
16:39 33.5 °F 24.8 °F 30.18 in Calm     70% 0.00 in 0 W/m2
16:44 33.4 °F 24.8 °F 30.18 in Calm     70.4% 0.00 in 0 W/m2
16:49 33.4 °F 25 °F 30.18 in Calm     71% 0.00 in 0 W/m2
16:54 33.3 °F 24.9 °F 30.18 in Calm     71% 0.00 in 0 W/m2
16:59 33.3 °F 25.2 °F 30.17 in Calm     71.8% 0.00 in 0 W/m2
17:04 33.3 °F 25.3 °F 30.17 in Calm     72% 0.00 in 0 W/m2
17:09 33.3 °F 25.2 °F 30.17 in Calm     72% 0.00 in 0 W/m2
17:14 33.2 °F 25.2 °F 30.17 in Calm     72% 0.00 in 0 W/m2
17:19 33.2 °F 25.1 °F 30.17 in Calm     72% 0.00 in 0 W/m2
17:24 33.1 °F 25.1 °F 30.17 in Calm     72% 0.00 in 0 W/m2
17:29 33.1 °F 25 °F 30.17 in Calm     72% 0.00 in 0 W/m2
17:34 33 °F 25 °F 30.17 in Calm     72% 0.00 in 0 W/m2
17:39 33 °F 25.1 °F 30.17 in Calm     72.3% 0.00 in 0 W/m2
17:44 33 °F 25.3 °F 30.17 in Calm     73% 0.00 in 0 W/m2
17:49 33 °F 25.3 °F 30.17 in Calm     73% 0.00 in 0 W/m2
17:54 32.9 °F 25.2 °F 30.17 in Calm     73% 0.00 in 0 W/m2
17:59 32.9 °F 25.2 °F 30.17 in Calm     73% 0.00 in 0 W/m2
18:04 32.9 °F 25.3 °F 30.17 in Calm     73.4% 0.00 in 0 W/m2
18:09 32.8 °F 25.1 °F 30.17 in Calm     73% 0.00 in 0 W/m2
18:14 32.8 °F 25.1 °F 30.17 in Calm     73% 0.00 in 0 W/m2
18:19 32.8 °F 25.1 °F 30.17 in Calm     73% 0.00 in 0 W/m2
18:24 32.7 °F 25 °F 30.17 in Calm     73% 0.00 in 0 W/m2
18:29 32.7 °F 25 °F 30.18 in Calm     73% 0.00 in 0 W/m2
18:34 32.6 °F 25.2 °F 30.18 in Calm     73.7% 0.00 in 0 W/m2
18:39 32.6 °F 25.2 °F 30.17 in Calm     74% 0.00 in 0 W/m2
18:44 32.5 °F 25.1 °F 30.17 in Calm     74% 0.00 in 0 W/m2
18:49 32.4 °F 25 °F 30.17 in Calm     74% 0.00 in 0 W/m2
18:54 32.3 °F 24.9 °F 30.17 in Calm     74% 0.00 in 0 W/m2
18:59 32.1 °F 24.8 °F 30.17 in Calm     74% 0.00 in 0 W/m2
19:04 32.1 °F 24.9 °F 30.17 in Calm     74.5% 0.00 in 0 W/m2
19:09 32 °F 25 °F 30.17 in Calm     75% 0.00 in 0 W/m2
19:14 32 °F 25 °F 30.17 in Calm     75% 0.00 in 0 W/m2
19:19 32 °F 25 °F 30.17 in Calm     75% 0.00 in 0 W/m2
19:24 32 °F 25.2 °F 30.17 in Calm     75.8% 0.00 in 0 W/m2
19:29 32 °F 25.3 °F 30.17 in Calm     76% 0.00 in 0 W/m2
19:34 32 °F 25.3 °F 30.17 in Calm     76% 0.00 in 0 W/m2
19:39 31.9 °F 25.2 °F 30.17 in Calm     76% 0.00 in 0 W/m2
19:44 31.9 °F 25.2 °F 30.17 in Calm     76% 0.00 in 0 W/m2
19:49 31.9 °F 25.2 °F 30.17 in Calm     76% 0.00 in 0 W/m2
19:54 31.9 °F 25.2 °F 30.17 in Calm     76% 0.00 in 0 W/m2
19:59 31.9 °F 25.3 °F 30.17 in Calm     76% 0.00 in 0 W/m2
20:00 32 °F 25.3 °F 30.16 in Calm     76% 0.00 in 0 W/m2
20:09 32.1 °F 25.1 °F 30.17 in Calm     75% 0.00 in 0 W/m2
20:14 32.2 °F 25.2 °F 30.16 in Calm     74.8% 0.00 in 0 W/m2
20:19 32.3 °F 25 °F 30.16 in Calm     74% 0.00 in 0 W/m2
20:24 32.3 °F 25.3 °F 30.16 in Calm     75% 0.00 in 0 W/m2
20:29 32.3 °F 25.3 °F 30.16 in Calm     75% 0.00 in 0 W/m2
20:34 32.3 °F 25.3 °F 30.16 in Calm     75% 0.00 in 0 W/m2
20:39 32.3 °F 25.3 °F 30.16 in Calm     75% 0.00 in 0 W/m2
20:44 32.3 °F 25.3 °F 30.16 in Calm     75% 0.00 in 0 W/m2
20:49 32.3 °F 25.3 °F 30.15 in Calm     75% 0.00 in 0 W/m2
20:54 32.3 °F 25.5 °F 30.15 in Calm     75.7% 0.00 in 0 W/m2
20:59 32.3 °F 25.6 °F 30.15 in Calm     76% 0.00 in 0 W/m2
21:04 32.3 °F 25.6 °F 30.15 in Calm     76% 0.00 in 0 W/m2
21:09 32.3 °F 25.6 °F 30.15 in Calm     76% 0.00 in 0 W/m2
21:14 32.3 °F 25.7 °F 30.15 in Calm     76.4% 0.00 in 0 W/m2
21:19 32.3 °F 25.9 °F 30.15 in Calm     77% 0.00 in 0 W/m2
21:24 32.3 °F 25.9 °F 30.14 in Calm     77% 0.00 in 0 W/m2
21:29 32.3 °F 25.9 °F 30.14 in Calm     77% 0.00 in 0 W/m2
21:34 32.3 °F 25.9 °F 30.14 in Calm     77% 0.00 in 0 W/m2
21:39 32.3 °F 25.9 °F 30.13 in Calm     77% 0.00 in 0 W/m2
21:44 32.3 °F 25.9 °F 30.14 in Calm     77% 0.00 in 0 W/m2
21:49 32.3 °F 25.9 °F 30.14 in Calm     77% 0.00 in 0 W/m2
21:54 32.3 °F 25.9 °F 30.14 in Calm     77% 0.00 in 0 W/m2
21:59 32.2 °F 25.8 °F 30.14 in Calm     77% 0.00 in 0 W/m2
22:04 32.1 °F 25.7 °F 30.13 in Calm     77% 0.00 in 0 W/m2
22:09 32 °F 25.6 °F 30.13 in Calm     77% 0.00 in 0 W/m2
22:14 31.8 °F 25.5 °F 30.13 in Calm     77% 0.00 in 0 W/m2
22:19 31.7 °F 25.3 °F 30.13 in Calm     77% 0.00 in 0 W/m2
22:24 31.5 °F 25.2 °F 30.13 in Calm     77% 0.00 in 0 W/m2
22:29 31.4 °F 25 °F 30.13 in Calm     77% 0.00 in 0 W/m2
22:34 31.2 °F 25.1 °F 30.13 in Calm     77.8% 0.00 in 0 W/m2
22:39 30.9 °F 24.9 °F 30.13 in Calm     78% 0.00 in 0 W/m2
22:44 30.7 °F 24.7 °F 30.13 in Calm     78.3% 0.00 in 0 W/m2
22:49 30.4 °F 24.7 °F 30.13 in Calm     79% 0.00 in 0 W/m2
22:54 30.2 °F 24.5 °F 30.13 in Calm     79% 0.00 in 0 W/m2
22:59 30 °F 24.3 °F 30.13 in Calm     79.1% 0.00 in 0 W/m2
23:00 29.9 °F 24.5 °F 30.13 in Calm     80% 0.00 in 0 W/m2
23:09 29.7 °F 24.3 °F 30.13 in Calm     80% 0.00 in 0 W/m2
23:14 29.5 °F 24.4 °F 30.13 in Calm     81% 0.00 in 0 W/m2
23:19 29.4 °F 24.3 °F 30.13 in Calm     81% 0.00 in 0 W/m2
23:24 29.3 °F 24.3 °F 30.12 in Calm     81.4% 0.00 in 0 W/m2
23:29 29.3 °F 24.5 °F 30.12 in Calm     82% 0.00 in 0 W/m2
23:34 29.4 °F 24.6 °F 30.12 in Calm     82% 0.00 in 0 W/m2
23:39 29.4 °F 24.6 °F 30.13 in Calm     82% 0.00 in 0 W/m2
23:44 29.3 °F 24.5 °F 30.13 in Calm     82% 0.00 in 0 W/m2
23:49 29.3 °F 24.5 °F 30.12 in Calm     82% 0.00 in 0 W/m2
23:54 29.3 °F 24.5 °F 30.12 in Calm     82% 0.00 in 0 W/m2
23:59 29.2 °F 24.4 °F 30.11 in Calm     82% 0.00 in 0 W/m2
Hartford County Weather
Compliments of Weather Underground - 2 mb